sensor_id;sensor_type;location;lat;lon;timestamp;P1;durP1;ratioP1;P2;durP2;ratioP2
68614;SDS011;55593;51.994;5.882;2023-02-11T00:01:52;42.53;;;19.35;;
68614;SDS011;55593;51.994;5.882;2023-02-11T00:04:24;32.90;;;17.30;;
68614;SDS011;55593;51.994;5.882;2023-02-11T00:06:53;33.83;;;17.70;;
68614;SDS011;55593;51.994;5.882;2023-02-11T00:09:22;25.65;;;14.60;;
68614;SDS011;55593;51.994;5.882;2023-02-11T00:11:51;35.45;;;15.48;;
68614;SDS011;55593;51.994;5.882;2023-02-11T00:14:21;32.33;;;13.82;;
68614;SDS011;55593;51.994;5.882;2023-02-11T00:16:50;34.13;;;16.65;;
68614;SDS011;55593;51.994;5.882;2023-02-11T00:19:19;35.17;;;14.65;;
68614;SDS011;55593;51.994;5.882;2023-02-11T00:21:51;27.92;;;13.10;;
68614;SDS011;55593;51.994;5.882;2023-02-11T00:24:20;34.90;;;14.20;;
68614;SDS011;55593;51.994;5.882;2023-02-11T00:26:49;31.95;;;14.10;;
68614;SDS011;55593;51.994;5.882;2023-02-11T00:29:18;27.58;;;12.23;;
68614;SDS011;55593;51.994;5.882;2023-02-11T00:31:47;35.65;;;12.63;;
68614;SDS011;55593;51.994;5.882;2023-02-11T00:34:17;29.40;;;11.88;;
68614;SDS011;55593;51.994;5.882;2023-02-11T00:36:46;30.67;;;12.82;;
68614;SDS011;55593;51.994;5.882;2023-02-11T00:39:17;32.38;;;12.60;;
68614;SDS011;55593;51.994;5.882;2023-02-11T00:41:47;27.30;;;11.60;;
68614;SDS011;55593;51.994;5.882;2023-02-11T00:44:16;25.02;;;11.30;;
68614;SDS011;55593;51.994;5.882;2023-02-11T00:46:47;33.28;;;13.52;;
68614;SDS011;55593;51.994;5.882;2023-02-11T00:49:16;35.72;;;12.38;;
68614;SDS011;55593;51.994;5.882;2023-02-11T00:51:47;34.72;;;11.57;;
68614;SDS011;55593;51.994;5.882;2023-02-11T00:54:18;36.80;;;13.05;;
68614;SDS011;55593;51.994;5.882;2023-02-11T00:56:48;30.20;;;10.93;;
68614;SDS011;55593;51.994;5.882;2023-02-11T00:59:17;28.25;;;11.45;;
68614;SDS011;55593;51.994;5.882;2023-02-11T01:01:46;32.50;;;10.50;;
68614;SDS011;55593;51.994;5.882;2023-02-11T01:04:15;32.83;;;10.82;;
68614;SDS011;55593;51.994;5.882;2023-02-11T01:06:44;35.72;;;11.93;;
68614;SDS011;55593;51.994;5.882;2023-02-11T01:09:13;35.33;;;11.63;;
68614;SDS011;55593;51.994;5.882;2023-02-11T01:11:45;30.30;;;11.13;;
68614;SDS011;55593;51.994;5.882;2023-02-11T01:14:15;28.17;;;10.65;;
68614;SDS011;55593;51.994;5.882;2023-02-11T01:16:44;28.15;;;10.25;;
68614;SDS011;55593;51.994;5.882;2023-02-11T01:19:13;24.70;;;10.13;;
68614;SDS011;55593;51.994;5.882;2023-02-11T01:21:45;25.45;;;9.75;;
68614;SDS011;55593;51.994;5.882;2023-02-11T01:24:14;35.20;;;11.30;;
68614;SDS011;55593;51.994;5.882;2023-02-11T01:26:46;30.98;;;10.00;;
68614;SDS011;55593;51.994;5.882;2023-02-11T01:29:15;24.55;;;10.23;;
68614;SDS011;55593;51.994;5.882;2023-02-11T01:31:44;26.20;;;9.82;;
68614;SDS011;55593;51.994;5.882;2023-02-11T01:34:14;28.90;;;11.10;;
68614;SDS011;55593;51.994;5.882;2023-02-11T01:36:43;25.55;;;10.65;;
68614;SDS011;55593;51.994;5.882;2023-02-11T01:39:13;33.10;;;11.20;;
68614;SDS011;55593;51.994;5.882;2023-02-11T01:41:42;29.08;;;12.90;;
68614;SDS011;55593;51.994;5.882;2023-02-11T01:44:24;29.40;;;10.80;;
68614;SDS011;55593;51.994;5.882;2023-02-11T01:46:55;28.00;;;10.35;;
68614;SDS011;55593;51.994;5.882;2023-02-11T01:49:25;30.10;;;9.70;;
68614;SDS011;55593;51.994;5.882;2023-02-11T01:51:57;33.30;;;11.52;;
68614;SDS011;55593;51.994;5.882;2023-02-11T01:54:29;25.23;;;10.82;;
68614;SDS011;55593;51.994;5.882;2023-02-11T01:57:13;27.17;;;11.50;;
68614;SDS011;55593;51.994;5.882;2023-02-11T02:02:43;25.27;;;9.70;;
68614;SDS011;55593;51.994;5.882;2023-02-11T02:05:24;32.42;;;11.70;;
68614;SDS011;55593;51.994;5.882;2023-02-11T02:07:59;39.97;;;10.55;;
68614;SDS011;55593;51.994;5.882;2023-02-11T02:10:33;22.95;;;8.30;;
68614;SDS011;55593;51.994;5.882;2023-02-11T02:13:03;35.22;;;11.38;;
68614;SDS011;55593;51.994;5.882;2023-02-11T02:15:35;30.13;;;10.07;;
68614;SDS011;55593;51.994;5.882;2023-02-11T02:18:09;32.10;;;11.45;;
68614;SDS011;55593;51.994;5.882;2023-02-11T02:21:01;30.60;;;9.75;;
68614;SDS011;55593;51.994;5.882;2023-02-11T02:23:51;39.45;;;11.35;;
68614;SDS011;55593;51.994;5.882;2023-02-11T02:26:44;28.77;;;10.18;;
68614;SDS011;55593;51.994;5.882;2023-02-11T02:29:28;35.35;;;10.82;;
68614;SDS011;55593;51.994;5.882;2023-02-11T02:35:14;36.55;;;11.07;;
68614;SDS011;55593;51.994;5.882;2023-02-11T02:37:50;27.05;;;10.48;;
68614;SDS011;55593;51.994;5.882;2023-02-11T02:40:26;20.75;;;8.60;;
68614;SDS011;55593;51.994;5.882;2023-02-11T02:42:58;35.72;;;11.30;;
68614;SDS011;55593;51.994;5.882;2023-02-11T02:45:29;34.15;;;10.38;;
68614;SDS011;55593;51.994;5.882;2023-02-11T02:47:58;31.23;;;11.73;;
68614;SDS011;55593;51.994;5.882;2023-02-11T02:50:30;32.97;;;10.38;;
68614;SDS011;55593;51.994;5.882;2023-02-11T02:53:06;29.00;;;10.13;;
68614;SDS011;55593;51.994;5.882;2023-02-11T02:55:54;25.48;;;10.27;;
68614;SDS011;55593;51.994;5.882;2023-02-11T03:01:25;33.55;;;11.48;;
68614;SDS011;55593;51.994;5.882;2023-02-11T03:04:00;34.17;;;11.20;;
68614;SDS011;55593;51.994;5.882;2023-02-11T03:06:37;36.22;;;12.63;;
68614;SDS011;55593;51.994;5.882;2023-02-11T03:09:14;31.10;;;9.80;;
68614;SDS011;55593;51.994;5.882;2023-02-11T03:11:47;39.08;;;13.70;;
68614;SDS011;55593;51.994;5.882;2023-02-11T03:14:16;37.10;;;11.95;;
68614;SDS011;55593;51.994;5.882;2023-02-11T03:16:46;33.95;;;10.98;;
68614;SDS011;55593;51.994;5.882;2023-02-11T03:19:17;31.40;;;12.18;;
68614;SDS011;55593;51.994;5.882;2023-02-11T03:21:51;41.05;;;13.00;;
68614;SDS011;55593;51.994;5.882;2023-02-11T03:24:23;36.20;;;13.38;;
68614;SDS011;55593;51.994;5.882;2023-02-11T03:26:56;38.03;;;12.15;;
68614;SDS011;55593;51.994;5.882;2023-02-11T03:29:30;36.08;;;12.43;;
68614;SDS011;55593;51.994;5.882;2023-02-11T03:32:04;35.40;;;12.93;;
68614;SDS011;55593;51.994;5.882;2023-02-11T03:34:39;30.30;;;12.45;;
68614;SDS011;55593;51.994;5.882;2023-02-11T03:37:14;32.22;;;14.13;;
68614;SDS011;55593;51.994;5.882;2023-02-11T03:39:46;37.25;;;13.13;;
68614;SDS011;55593;51.994;5.882;2023-02-11T03:42:18;38.55;;;14.02;;
68614;SDS011;55593;51.994;5.882;2023-02-11T03:44:48;31.40;;;12.20;;
68614;SDS011;55593;51.994;5.882;2023-02-11T03:47:20;28.33;;;12.70;;
68614;SDS011;55593;51.994;5.882;2023-02-11T03:49:52;33.63;;;13.73;;
68614;SDS011;55593;51.994;5.882;2023-02-11T03:52:25;38.10;;;14.82;;
68614;SDS011;55593;51.994;5.882;2023-02-11T03:54:55;39.22;;;14.07;;
68614;SDS011;55593;51.994;5.882;2023-02-11T03:57:26;39.13;;;14.73;;
68614;SDS011;55593;51.994;5.882;2023-02-11T03:59:56;36.65;;;14.15;;
68614;SDS011;55593;51.994;5.882;2023-02-11T04:02:26;37.75;;;14.65;;
68614;SDS011;55593;51.994;5.882;2023-02-11T04:04:58;46.30;;;15.15;;
68614;SDS011;55593;51.994;5.882;2023-02-11T04:07:30;26.25;;;13.32;;
68614;SDS011;55593;51.994;5.882;2023-02-11T04:09:59;40.00;;;15.88;;
68614;SDS011;55593;51.994;5.882;2023-02-11T04:12:28;44.53;;;15.00;;
68614;SDS011;55593;51.994;5.882;2023-02-11T04:14:57;33.88;;;15.30;;
68614;SDS011;55593;51.994;5.882;2023-02-11T04:17:26;34.55;;;14.45;;
68614;SDS011;55593;51.994;5.882;2023-02-11T04:19:55;39.03;;;15.73;;
68614;SDS011;55593;51.994;5.882;2023-02-11T04:22:25;43.70;;;17.17;;
68614;SDS011;55593;51.994;5.882;2023-02-11T04:24:56;41.53;;;16.08;;
68614;SDS011;55593;51.994;5.882;2023-02-11T04:27:25;40.00;;;16.33;;
68614;SDS011;55593;51.994;5.882;2023-02-11T04:29:55;37.92;;;15.18;;
68614;SDS011;55593;51.994;5.882;2023-02-11T04:32:24;39.83;;;17.73;;
68614;SDS011;55593;51.994;5.882;2023-02-11T04:34:53;51.47;;;20.02;;
68614;SDS011;55593;51.994;5.882;2023-02-11T04:37:22;39.80;;;17.13;;
68614;SDS011;55593;51.994;5.882;2023-02-11T04:39:51;49.38;;;18.25;;
68614;SDS011;55593;51.994;5.882;2023-02-11T04:42:23;58.60;;;21.40;;
68614;SDS011;55593;51.994;5.882;2023-02-11T04:44:52;35.60;;;17.40;;
68614;SDS011;55593;51.994;5.882;2023-02-11T04:47:21;47.05;;;18.20;;
68614;SDS011;55593;51.994;5.882;2023-02-11T04:49:51;43.13;;;16.65;;
68614;SDS011;55593;51.994;5.882;2023-02-11T04:52:20;36.38;;;17.17;;
68614;SDS011;55593;51.994;5.882;2023-02-11T04:54:49;41.92;;;19.25;;
68614;SDS011;55593;51.994;5.882;2023-02-11T04:57:18;42.78;;;18.25;;
68614;SDS011;55593;51.994;5.882;2023-02-11T04:59:50;45.67;;;18.70;;
68614;SDS011;55593;51.994;5.882;2023-02-11T05:02:19;38.22;;;18.73;;
68614;SDS011;55593;51.994;5.882;2023-02-11T05:04:48;53.72;;;19.67;;
68614;SDS011;55593;51.994;5.882;2023-02-11T05:07:17;46.35;;;18.27;;
68614;SDS011;55593;51.994;5.882;2023-02-11T05:09:46;48.92;;;19.25;;
68614;SDS011;55593;51.994;5.882;2023-02-11T05:12:16;49.88;;;19.95;;
68614;SDS011;55593;51.994;5.882;2023-02-11T05:14:46;42.03;;;21.23;;
68614;SDS011;55593;51.994;5.882;2023-02-11T05:17:18;50.45;;;21.45;;
68614;SDS011;55593;51.994;5.882;2023-02-11T05:19:47;45.03;;;20.00;;
68614;SDS011;55593;51.994;5.882;2023-02-11T05:22:16;52.15;;;21.95;;
68614;SDS011;55593;51.994;5.882;2023-02-11T05:24:46;53.55;;;22.95;;
68614;SDS011;55593;51.994;5.882;2023-02-11T05:27:16;49.33;;;23.17;;
68614;SDS011;55593;51.994;5.882;2023-02-11T05:29:45;52.70;;;19.55;;
68614;SDS011;55593;51.994;5.882;2023-02-11T05:32:14;49.53;;;22.90;;
68614;SDS011;55593;51.994;5.882;2023-02-11T05:34:46;42.75;;;23.45;;
68614;SDS011;55593;51.994;5.882;2023-02-11T05:37:15;45.60;;;22.98;;
68614;SDS011;55593;51.994;5.882;2023-02-11T05:39:44;49.20;;;23.30;;
68614;SDS011;55593;51.994;5.882;2023-02-11T05:42:14;49.28;;;23.45;;
68614;SDS011;55593;51.994;5.882;2023-02-11T05:44:43;43.92;;;23.10;;
68614;SDS011;55593;51.994;5.882;2023-02-11T05:47:12;47.03;;;21.45;;
68614;SDS011;55593;51.994;5.882;2023-02-11T05:49:41;64.28;;;24.45;;
68614;SDS011;55593;51.994;5.882;2023-02-11T05:52:13;55.47;;;24.05;;
68614;SDS011;55593;51.994;5.882;2023-02-11T05:54:42;48.92;;;25.10;;
68614;SDS011;55593;51.994;5.882;2023-02-11T05:57:11;65.20;;;25.95;;
68614;SDS011;55593;51.994;5.882;2023-02-11T05:59:41;61.97;;;26.58;;
68614;SDS011;55593;51.994;5.882;2023-02-11T06:02:10;57.83;;;29.00;;
68614;SDS011;55593;51.994;5.882;2023-02-11T06:04:39;64.18;;;26.63;;
68614;SDS011;55593;51.994;5.882;2023-02-11T06:07:09;67.05;;;28.60;;
68614;SDS011;55593;51.994;5.882;2023-02-11T06:09:41;70.18;;;27.55;;
68614;SDS011;55593;51.994;5.882;2023-02-11T06:12:10;59.90;;;28.92;;
68614;SDS011;55593;51.994;5.882;2023-02-11T06:14:39;74.78;;;28.00;;
68614;SDS011;55593;51.994;5.882;2023-02-11T06:17:09;59.90;;;27.35;;
68614;SDS011;55593;51.994;5.882;2023-02-11T06:19:40;69.38;;;29.63;;
68614;SDS011;55593;51.994;5.882;2023-02-11T06:22:09;62.83;;;29.02;;
68614;SDS011;55593;51.994;5.882;2023-02-11T06:24:41;66.20;;;29.63;;
68614;SDS011;55593;51.994;5.882;2023-02-11T06:27:24;59.22;;;29.65;;
68614;SDS011;55593;51.994;5.882;2023-02-11T06:29:53;64.57;;;28.27;;
68614;SDS011;55593;51.994;5.882;2023-02-11T06:32:22;67.80;;;31.77;;
68614;SDS011;55593;51.994;5.882;2023-02-11T06:34:51;60.10;;;30.23;;
68614;SDS011;55593;51.994;5.882;2023-02-11T06:37:21;66.10;;;31.45;;
68614;SDS011;55593;51.994;5.882;2023-02-11T06:39:52;79.35;;;30.52;;
68614;SDS011;55593;51.994;5.882;2023-02-11T06:42:21;60.15;;;29.85;;
68614;SDS011;55593;51.994;5.882;2023-02-11T06:44:51;68.68;;;31.98;;
68614;SDS011;55593;51.994;5.882;2023-02-11T06:47:20;80.95;;;35.72;;
68614;SDS011;55593;51.994;5.882;2023-02-11T06:49:49;77.60;;;33.58;;
68614;SDS011;55593;51.994;5.882;2023-02-11T06:52:18;70.78;;;33.55;;
68614;SDS011;55593;51.994;5.882;2023-02-11T06:54:47;82.30;;;33.92;;
68614;SDS011;55593;51.994;5.882;2023-02-11T06:57:23;66.00;;;31.95;;
68614;SDS011;55593;51.994;5.882;2023-02-11T06:59:52;80.03;;;36.53;;
68614;SDS011;55593;51.994;5.882;2023-02-11T07:02:22;82.03;;;31.98;;
68614;SDS011;55593;51.994;5.882;2023-02-11T07:04:51;80.20;;;34.70;;
68614;SDS011;55593;51.994;5.882;2023-02-11T07:07:20;79.03;;;36.42;;
68614;SDS011;55593;51.994;5.882;2023-02-11T07:09:49;84.18;;;35.28;;
68614;SDS011;55593;51.994;5.882;2023-02-11T07:12:18;81.10;;;37.38;;
68614;SDS011;55593;51.994;5.882;2023-02-11T07:14:50;80.80;;;36.53;;
68614;SDS011;55593;51.994;5.882;2023-02-11T07:17:19;79.45;;;36.15;;
68614;SDS011;55593;51.994;5.882;2023-02-11T07:19:48;78.38;;;35.80;;
68614;SDS011;55593;51.994;5.882;2023-02-11T07:22:18;93.82;;;37.97;;
68614;SDS011;55593;51.994;5.882;2023-02-11T07:24:47;91.25;;;38.47;;
68614;SDS011;55593;51.994;5.882;2023-02-11T07:27:16;94.85;;;37.28;;
68614;SDS011;55593;51.994;5.882;2023-02-11T07:29:45;82.25;;;36.50;;
68614;SDS011;55593;51.994;5.882;2023-02-11T07:32:19;88.65;;;37.88;;
68614;SDS011;55593;51.994;5.882;2023-02-11T07:34:48;93.80;;;37.72;;
68614;SDS011;55593;51.994;5.882;2023-02-11T07:37:17;81.40;;;34.92;;
68614;SDS011;55593;51.994;5.882;2023-02-11T07:39:47;103.13;;;40.45;;
68614;SDS011;55593;51.994;5.882;2023-02-11T07:42:17;88.20;;;37.25;;
68614;SDS011;55593;51.994;5.882;2023-02-11T07:44:46;94.47;;;40.38;;
68614;SDS011;55593;51.994;5.882;2023-02-11T07:47:18;94.15;;;40.67;;
68614;SDS011;55593;51.994;5.882;2023-02-11T07:49:47;89.05;;;38.08;;
68614;SDS011;55593;51.994;5.882;2023-02-11T07:52:17;101.13;;;42.10;;
68614;SDS011;55593;51.994;5.882;2023-02-11T07:54:47;89.57;;;40.40;;
68614;SDS011;55593;51.994;5.882;2023-02-11T07:57:16;98.15;;;41.55;;
68614;SDS011;55593;51.994;5.882;2023-02-11T07:59:45;86.13;;;38.90;;
68614;SDS011;55593;51.994;5.882;2023-02-11T08:02:14;100.38;;;42.28;;
68614;SDS011;55593;51.994;5.882;2023-02-11T08:04:47;104.47;;;41.13;;
68614;SDS011;55593;51.994;5.882;2023-02-11T08:07:16;90.60;;;40.83;;
68614;SDS011;55593;51.994;5.882;2023-02-11T08:09:45;96.55;;;41.92;;
68614;SDS011;55593;51.994;5.882;2023-02-11T08:12:14;92.15;;;41.78;;
68614;SDS011;55593;51.994;5.882;2023-02-11T08:14:43;97.63;;;41.40;;
68614;SDS011;55593;51.994;5.882;2023-02-11T08:17:13;101.05;;;41.03;;
68614;SDS011;55593;51.994;5.882;2023-02-11T08:19:42;105.13;;;42.80;;
68614;SDS011;55593;51.994;5.882;2023-02-11T08:22:14;104.38;;;41.50;;
68614;SDS011;55593;51.994;5.882;2023-02-11T08:24:43;100.45;;;42.63;;
68614;SDS011;55593;51.994;5.882;2023-02-11T08:27:13;107.20;;;43.90;;
68614;SDS011;55593;51.994;5.882;2023-02-11T08:29:42;91.95;;;38.33;;
68614;SDS011;55593;51.994;5.882;2023-02-11T08:32:11;95.90;;;43.00;;
68614;SDS011;55593;51.994;5.882;2023-02-11T08:34:40;95.55;;;43.13;;
68614;SDS011;55593;51.994;5.882;2023-02-11T08:37:09;105.07;;;42.00;;
68614;SDS011;55593;51.994;5.882;2023-02-11T08:39:41;100.30;;;42.97;;
68614;SDS011;55593;51.994;5.882;2023-02-11T08:42:12;100.28;;;40.55;;
68614;SDS011;55593;51.994;5.882;2023-02-11T08:44:41;105.18;;;41.08;;
68614;SDS011;55593;51.994;5.882;2023-02-11T08:47:11;89.55;;;41.55;;
68614;SDS011;55593;51.994;5.882;2023-02-11T08:49:42;86.60;;;39.25;;
68614;SDS011;55593;51.994;5.882;2023-02-11T08:52:12;98.78;;;41.78;;
68614;SDS011;55593;51.994;5.882;2023-02-11T08:54:44;96.60;;;42.50;;
68614;SDS011;55593;51.994;5.882;2023-02-11T08:57:13;88.47;;;40.08;;
68614;SDS011;55593;51.994;5.882;2023-02-11T08:59:42;94.88;;;38.70;;
68614;SDS011;55593;51.994;5.882;2023-02-11T09:02:12;92.00;;;39.40;;
68614;SDS011;55593;51.994;5.882;2023-02-11T09:04:41;93.80;;;39.10;;
68614;SDS011;55593;51.994;5.882;2023-02-11T09:07:10;92.22;;;41.58;;
68614;SDS011;55593;51.994;5.882;2023-02-11T09:09:45;90.18;;;39.47;;
68614;SDS011;55593;51.994;5.882;2023-02-11T09:12:14;93.57;;;39.80;;
68614;SDS011;55593;51.994;5.882;2023-02-11T09:14:43;95.07;;;40.33;;
68614;SDS011;55593;51.994;5.882;2023-02-11T09:17:13;80.07;;;36.53;;
68614;SDS011;55593;51.994;5.882;2023-02-11T09:19:42;90.05;;;40.70;;
68614;SDS011;55593;51.994;5.882;2023-02-11T09:22:11;87.72;;;39.50;;
68614;SDS011;55593;51.994;5.882;2023-02-11T09:24:40;90.60;;;39.15;;
68614;SDS011;55593;51.994;5.882;2023-02-11T09:27:12;77.05;;;35.53;;
68614;SDS011;55593;51.994;5.882;2023-02-11T09:29:45;82.78;;;38.25;;
68614;SDS011;55593;51.994;5.882;2023-02-11T09:32:14;77.45;;;39.40;;
68614;SDS011;55593;51.994;5.882;2023-02-11T09:34:43;80.32;;;37.50;;
68614;SDS011;55593;51.994;5.882;2023-02-11T09:37:12;82.97;;;38.33;;
68614;SDS011;55593;51.994;5.882;2023-02-11T09:39:41;72.00;;;37.63;;
68614;SDS011;55593;51.994;5.882;2023-02-11T09:45:19;92.50;;;40.42;;
68614;SDS011;55593;51.994;5.882;2023-02-11T09:47:52;75.47;;;37.20;;
68614;SDS011;55593;51.994;5.882;2023-02-11T09:50:25;79.05;;;35.63;;
68614;SDS011;55593;51.994;5.882;2023-02-11T09:52:59;80.00;;;37.15;;
68614;SDS011;55593;51.994;5.882;2023-02-11T09:55:30;81.18;;;37.15;;
68614;SDS011;55593;51.994;5.882;2023-02-11T09:58:03;73.20;;;37.25;;
68614;SDS011;55593;51.994;5.882;2023-02-11T10:00:39;83.90;;;39.55;;
68614;SDS011;55593;51.994;5.882;2023-02-11T10:03:19;85.47;;;38.92;;
68614;SDS011;55593;51.994;5.882;2023-02-11T10:06:02;77.97;;;39.35;;
68614;SDS011;55593;51.994;5.882;2023-02-11T10:08:49;81.50;;;38.53;;
68614;SDS011;55593;51.994;5.882;2023-02-11T10:11:29;70.30;;;36.97;;
68614;SDS011;55593;51.994;5.882;2023-02-11T10:14:05;71.47;;;35.35;;
68614;SDS011;55593;51.994;5.882;2023-02-11T10:16:50;69.03;;;35.40;;
68614;SDS011;55593;51.994;5.882;2023-02-11T10:19:29;73.85;;;36.67;;
68614;SDS011;55593;51.994;5.882;2023-02-11T10:22:09;71.35;;;34.17;;
68614;SDS011;55593;51.994;5.882;2023-02-11T10:24:42;67.78;;;34.17;;
68614;SDS011;55593;51.994;5.882;2023-02-11T10:29:48;66.80;;;34.97;;
68614;SDS011;55593;51.994;5.882;2023-02-11T10:32:25;65.90;;;34.70;;
68614;SDS011;55593;51.994;5.882;2023-02-11T10:34:59;64.88;;;34.70;;
68614;SDS011;55593;51.994;5.882;2023-02-11T10:37:31;58.08;;;33.60;;
68614;SDS011;55593;51.994;5.882;2023-02-11T10:40:00;61.72;;;33.85;;
68614;SDS011;55593;51.994;5.882;2023-02-11T10:42:29;58.55;;;33.30;;
68614;SDS011;55593;51.994;5.882;2023-02-11T10:44:59;56.20;;;32.08;;
68614;SDS011;55593;51.994;5.882;2023-02-11T10:47:35;57.17;;;32.58;;
68614;SDS011;55593;51.994;5.882;2023-02-11T10:50:16;57.40;;;30.92;;
68614;SDS011;55593;51.994;5.882;2023-02-11T10:52:48;56.53;;;31.88;;
68614;SDS011;55593;51.994;5.882;2023-02-11T10:55:18;57.38;;;31.80;;
68614;SDS011;55593;51.994;5.882;2023-02-11T10:57:54;55.90;;;31.55;;
68614;SDS011;55593;51.994;5.882;2023-02-11T11:00:28;59.55;;;33.00;;
68614;SDS011;55593;51.994;5.882;2023-02-11T11:03:04;52.30;;;32.33;;
68614;SDS011;55593;51.994;5.882;2023-02-11T11:05:45;51.08;;;30.20;;
68614;SDS011;55593;51.994;5.882;2023-02-11T11:08:16;53.88;;;31.77;;
68614;SDS011;55593;51.994;5.882;2023-02-11T11:10:47;54.55;;;30.25;;
68614;SDS011;55593;51.994;5.882;2023-02-11T11:13:27;51.92;;;30.90;;
68614;SDS011;55593;51.994;5.882;2023-02-11T11:16:05;51.92;;;29.98;;
68614;SDS011;55593;51.994;5.882;2023-02-11T11:18:50;47.17;;;30.83;;
68614;SDS011;55593;51.994;5.882;2023-02-11T11:21:23;59.10;;;30.90;;
68614;SDS011;55593;51.994;5.882;2023-02-11T11:23:54;52.22;;;30.77;;
68614;SDS011;55593;51.994;5.882;2023-02-11T11:26:24;47.42;;;30.17;;
68614;SDS011;55593;51.994;5.882;2023-02-11T11:28:56;46.22;;;29.02;;
68614;SDS011;55593;51.994;5.882;2023-02-11T11:31:29;53.85;;;30.25;;
68614;SDS011;55593;51.994;5.882;2023-02-11T11:34:04;46.70;;;29.55;;
68614;SDS011;55593;51.994;5.882;2023-02-11T11:36:46;47.25;;;28.92;;
68614;SDS011;55593;51.994;5.882;2023-02-11T11:39:17;49.80;;;29.52;;
68614;SDS011;55593;51.994;5.882;2023-02-11T11:41:49;47.60;;;27.25;;
68614;SDS011;55593;51.994;5.882;2023-02-11T11:44:27;45.40;;;27.92;;
68614;SDS011;55593;51.994;5.882;2023-02-11T11:47:06;41.40;;;26.67;;
68614;SDS011;55593;51.994;5.882;2023-02-11T11:49:50;44.63;;;24.75;;
68614;SDS011;55593;51.994;5.882;2023-02-11T11:52:28;45.67;;;24.58;;
68614;SDS011;55593;51.994;5.882;2023-02-11T11:55:04;37.80;;;23.73;;
68614;SDS011;55593;51.994;5.882;2023-02-11T11:57:38;39.70;;;24.05;;
68614;SDS011;55593;51.994;5.882;2023-02-11T12:00:13;41.60;;;23.90;;
68614;SDS011;55593;51.994;5.882;2023-02-11T12:05:40;35.45;;;21.70;;
68614;SDS011;55593;51.994;5.882;2023-02-11T12:08:12;35.10;;;21.90;;
68614;SDS011;55593;51.994;5.882;2023-02-11T12:10:48;30.00;;;19.87;;
68614;SDS011;55593;51.994;5.882;2023-02-11T12:13:34;33.83;;;19.38;;
68614;SDS011;55593;51.994;5.882;2023-02-11T12:16:11;31.75;;;20.38;;
68614;SDS011;55593;51.994;5.882;2023-02-11T12:19:05;29.13;;;19.55;;
68614;SDS011;55593;51.994;5.882;2023-02-11T12:21:47;30.20;;;19.27;;
68614;SDS011;55593;51.994;5.882;2023-02-11T12:24:29;27.20;;;17.40;;
68614;SDS011;55593;51.994;5.882;2023-02-11T12:27:10;30.35;;;18.88;;
68614;SDS011;55593;51.994;5.882;2023-02-11T12:29:48;34.50;;;19.25;;
68614;SDS011;55593;51.994;5.882;2023-02-11T12:32:24;23.38;;;18.02;;
68614;SDS011;55593;51.994;5.882;2023-02-11T12:35:03;29.80;;;17.63;;
68614;SDS011;55593;51.994;5.882;2023-02-11T12:38:09;29.55;;;18.00;;
68614;SDS011;55593;51.994;5.882;2023-02-11T12:40:49;25.95;;;17.67;;
68614;SDS011;55593;51.994;5.882;2023-02-11T12:43:24;17.80;;;12.10;;
68614;SDS011;55593;51.994;5.882;2023-02-11T12:45:56;29.98;;;16.30;;
68614;SDS011;55593;51.994;5.882;2023-02-11T12:48:44;25.13;;;15.65;;
68614;SDS011;55593;51.994;5.882;2023-02-11T12:51:24;29.05;;;16.02;;
68614;SDS011;55593;51.994;5.882;2023-02-11T12:54:11;22.77;;;15.40;;
68614;SDS011;55593;51.994;5.882;2023-02-11T12:56:47;24.15;;;15.88;;
68614;SDS011;55593;51.994;5.882;2023-02-11T12:59:21;25.90;;;15.57;;
68614;SDS011;55593;51.994;5.882;2023-02-11T13:01:57;21.50;;;14.63;;
68614;SDS011;55593;51.994;5.882;2023-02-11T13:04:28;21.13;;;14.18;;
68614;SDS011;55593;51.994;5.882;2023-02-11T13:07:03;20.85;;;14.85;;
68614;SDS011;55593;51.994;5.882;2023-02-11T13:09:41;25.10;;;15.43;;
68614;SDS011;55593;51.994;5.882;2023-02-11T13:12:13;22.95;;;14.88;;
68614;SDS011;55593;51.994;5.882;2023-02-11T13:14:55;21.58;;;13.27;;
68614;SDS011;55593;51.994;5.882;2023-02-11T13:17:28;23.55;;;14.55;;
68614;SDS011;55593;51.994;5.882;2023-02-11T13:20:02;29.95;;;15.27;;
68614;SDS011;55593;51.994;5.882;2023-02-11T13:22:37;22.55;;;14.75;;
68614;SDS011;55593;51.994;5.882;2023-02-11T13:25:14;27.85;;;14.80;;
68614;SDS011;55593;51.994;5.882;2023-02-11T13:27:49;23.02;;;15.05;;
68614;SDS011;55593;51.994;5.882;2023-02-11T13:33:02;29.35;;;16.23;;
68614;SDS011;55593;51.994;5.882;2023-02-11T13:35:46;25.30;;;15.43;;
68614;SDS011;55593;51.994;5.882;2023-02-11T13:38:18;24.55;;;15.85;;
68614;SDS011;55593;51.994;5.882;2023-02-11T13:41:01;29.42;;;16.02;;
68614;SDS011;55593;51.994;5.882;2023-02-11T13:43:32;26.23;;;17.08;;
68614;SDS011;55593;51.994;5.882;2023-02-11T13:46:03;32.95;;;18.13;;
68614;SDS011;55593;51.994;5.882;2023-02-11T13:48:35;23.08;;;15.75;;
68614;SDS011;55593;51.994;5.882;2023-02-11T13:51:05;24.02;;;14.85;;
68614;SDS011;55593;51.994;5.882;2023-02-11T13:53:43;25.70;;;15.85;;
68614;SDS011;55593;51.994;5.882;2023-02-11T13:56:27;23.40;;;15.95;;
68614;SDS011;55593;51.994;5.882;2023-02-11T13:58:57;28.75;;;17.45;;
68614;SDS011;55593;51.994;5.882;2023-02-11T14:01:37;22.33;;;15.85;;
68614;SDS011;55593;51.994;5.882;2023-02-11T14:04:18;20.25;;;15.40;;
68614;SDS011;55593;51.994;5.882;2023-02-11T14:10:05;25.95;;;17.38;;
68614;SDS011;55593;51.994;5.882;2023-02-11T14:13:21;31.27;;;17.30;;
68614;SDS011;55593;51.994;5.882;2023-02-11T14:16:05;23.73;;;16.90;;
68614;SDS011;55593;51.994;5.882;2023-02-11T14:21:34;29.35;;;17.42;;
68614;SDS011;55593;51.994;5.882;2023-02-11T14:27:06;29.58;;;16.85;;
68614;SDS011;55593;51.994;5.882;2023-02-11T14:29:41;26.42;;;17.52;;
68614;SDS011;55593;51.994;5.882;2023-02-11T14:32:16;23.63;;;15.43;;
68614;SDS011;55593;51.994;5.882;2023-02-11T14:34:55;22.45;;;15.98;;
68614;SDS011;55593;51.994;5.882;2023-02-11T14:37:31;26.35;;;16.63;;
68614;SDS011;55593;51.994;5.882;2023-02-11T14:40:08;27.67;;;16.50;;
68614;SDS011;55593;51.994;5.882;2023-02-11T14:42:42;20.80;;;14.27;;
68614;SDS011;55593;51.994;5.882;2023-02-11T14:45:17;26.25;;;15.23;;
68614;SDS011;55593;51.994;5.882;2023-02-11T14:47:50;22.75;;;16.33;;
68614;SDS011;55593;51.994;5.882;2023-02-11T14:50:23;30.83;;;16.40;;
68614;SDS011;55593;51.994;5.882;2023-02-11T14:52:54;25.83;;;17.27;;
68614;SDS011;55593;51.994;5.882;2023-02-11T14:55:29;25.75;;;16.60;;
68614;SDS011;55593;51.994;5.882;2023-02-11T14:58:04;22.60;;;14.68;;
68614;SDS011;55593;51.994;5.882;2023-02-11T15:00:43;21.83;;;14.00;;
68614;SDS011;55593;51.994;5.882;2023-02-11T15:03:28;19.55;;;13.73;;
68614;SDS011;55593;51.994;5.882;2023-02-11T15:06:00;19.58;;;14.02;;
68614;SDS011;55593;51.994;5.882;2023-02-11T15:08:32;22.20;;;14.05;;
68614;SDS011;55593;51.994;5.882;2023-02-11T15:11:06;20.95;;;13.98;;
68614;SDS011;55593;51.994;5.882;2023-02-11T15:13:37;22.38;;;14.90;;
68614;SDS011;55593;51.994;5.882;2023-02-11T15:16:15;20.13;;;14.32;;
68614;SDS011;55593;51.994;5.882;2023-02-11T15:18:47;23.77;;;15.13;;
68614;SDS011;55593;51.994;5.882;2023-02-11T15:21:21;22.73;;;15.27;;
68614;SDS011;55593;51.994;5.882;2023-02-11T15:23:56;23.15;;;14.23;;